createdAt,value
2023-04-23T00:00:19.230Z,38.27
2023-04-23T00:02:22.892Z,38.27
2023-04-23T00:04:26.690Z,38.83
2023-04-23T00:06:37.887Z,38.41
2023-04-23T00:08:49.979Z,38.68
2023-04-23T00:10:52.316Z,38.95
2023-04-23T00:12:57.413Z,38.75
2023-04-23T00:15:02.153Z,38.59
2023-04-23T00:17:05.412Z,38.67
2023-04-23T00:19:06.927Z,38.93
2023-04-23T00:21:09.222Z,38.90
2023-04-23T00:23:14.691Z,38.98
2023-04-23T00:25:16.253Z,38.84
2023-04-23T00:27:18.293Z,38.83
2023-04-23T00:29:19.850Z,38.78
2023-04-23T00:31:22.745Z,38.73
2023-04-23T00:33:24.426Z,39.11
2023-04-23T00:35:30.274Z,38.65
2023-04-23T00:37:33.322Z,39.00
2023-04-23T00:39:37.517Z,39.32
2023-04-23T00:41:41.541Z,39.11
2023-04-23T00:43:45.870Z,39.76
2023-04-23T00:45:48.475Z,39.31
2023-04-23T00:47:54.106Z,39.31
2023-04-23T00:49:58.104Z,39.40
2023-04-23T00:52:00.725Z,39.50
2023-04-23T00:54:08.561Z,40.03
2023-04-23T00:56:10.641Z,39.50
2023-04-23T00:58:12.217Z,39.38
2023-04-23T01:00:20.552Z,39.43
2023-04-23T01:02:28.244Z,39.02
2023-04-23T01:04:31.682Z,38.98
2023-04-23T01:06:34.449Z,38.65
2023-04-23T01:08:38.106Z,38.86
2023-04-23T01:10:40.186Z,39.11
2023-04-23T01:12:41.972Z,39.03
2023-04-23T01:14:46.437Z,38.99
2023-04-23T01:16:48.227Z,38.96
2023-04-23T01:18:54.878Z,39.21
2023-04-23T01:20:56.531Z,38.72
2023-04-23T01:23:01.472Z,38.96
2023-04-23T01:25:04.056Z,39.22
2023-04-23T01:27:06.179Z,39.09
2023-04-23T01:29:08.100Z,39.69
2023-04-23T01:31:09.731Z,39.61
2023-04-23T01:33:15.198Z,39.84
2023-04-23T01:35:16.985Z,40.11
2023-04-23T01:37:18.947Z,40.14
2023-04-23T01:39:23.162Z,39.60
2023-04-23T01:41:25.171Z,39.76
2023-04-23T01:43:27.100Z,39.92
2023-04-23T01:45:30.676Z,40.11
2023-04-23T01:47:34.209Z,39.61
2023-04-23T01:49:36.061Z,39.94
2023-04-23T01:51:37.632Z,40.21
2023-04-23T01:53:39.152Z,40.72
2023-04-23T01:55:43.038Z,40.10
2023-04-23T01:57:45.389Z,39.97
2023-04-23T01:59:46.979Z,40.41
2023-04-23T02:01:49.960Z,40.40
2023-04-23T02:03:52.067Z,40.24
2023-04-23T02:05:55.201Z,40.44
2023-04-23T02:07:57.000Z,40.52
2023-04-23T02:09:59.154Z,40.68
2023-04-23T02:12:12.332Z,41.19
2023-04-23T02:14:14.265Z,40.67
2023-04-23T02:16:16.415Z,40.68
2023-04-23T02:18:18.013Z,40.69
2023-04-23T02:20:20.598Z,40.96
2023-04-23T02:22:25.094Z,40.89
2023-04-23T02:24:26.620Z,40.85
2023-04-23T02:26:31.072Z,40.57
2023-04-23T02:28:32.931Z,40.71
2023-04-23T02:30:35.730Z,40.35
2023-04-23T02:32:38.184Z,40.75
2023-04-23T02:34:40.412Z,40.81
2023-04-23T02:36:42.400Z,40.59
2023-04-23T02:38:45.615Z,40.19
2023-04-23T02:40:47.141Z,40.27
2023-04-23T02:42:49.903Z,40.92
2023-04-23T02:44:51.519Z,40.54
2023-04-23T02:46:53.585Z,40.16
2023-04-23T02:48:55.095Z,40.08
2023-04-23T02:50:57.085Z,40.04
2023-04-23T02:52:58.781Z,40.39
2023-04-23T02:55:01.923Z,40.12
2023-04-23T02:57:05.100Z,40.02
2023-04-23T02:59:09.101Z,40.09
2023-04-23T03:01:11.549Z,40.03
2023-04-23T03:03:15.416Z,39.99
2023-04-23T03:05:17.208Z,39.86
2023-04-23T03:07:19.146Z,40.18
2023-04-23T03:09:20.755Z,40.12
2023-04-23T03:11:22.672Z,40.51
2023-04-23T03:13:29.126Z,40.74
2023-04-23T03:15:38.382Z,40.60
2023-04-23T03:17:40.148Z,40.43
2023-04-23T03:19:42.041Z,40.40
2023-04-23T03:21:43.805Z,40.20
2023-04-23T03:23:47.655Z,40.50
2023-04-23T03:25:49.366Z,40.44
2023-04-23T03:27:51.261Z,40.41
2023-04-23T03:29:53.615Z,40.71
2023-04-23T03:31:55.493Z,40.26
2023-04-23T03:33:57.095Z,40.28
2023-04-23T03:36:05.787Z,40.26
2023-04-23T03:38:08.129Z,40.39
2023-04-23T03:40:14.930Z,40.18
2023-04-23T03:42:18.196Z,40.29
2023-04-23T03:44:22.253Z,40.38
2023-04-23T03:46:25.116Z,40.65
2023-04-23T03:48:27.363Z,40.38
2023-04-23T03:50:29.876Z,40.25
2023-04-23T03:52:46.633Z,40.77
2023-04-23T03:54:57.916Z,40.47
2023-04-23T03:57:05.105Z,40.65
2023-04-23T03:59:16.316Z,40.68
2023-04-23T04:01:19.189Z,40.73
2023-04-23T04:03:23.648Z,40.57
2023-04-23T04:05:25.406Z,40.52
2023-04-23T04:07:28.841Z,40.30
2023-04-23T04:09:30.952Z,40.66
2023-04-23T04:11:36.995Z,40.61
2023-04-23T04:13:38.595Z,40.77
2023-04-23T04:15:42.942Z,40.71
2023-04-23T04:17:46.083Z,40.80
2023-04-23T04:19:51.219Z,40.90
2023-04-23T04:21:57.804Z,40.65
2023-04-23T04:24:01.671Z,40.94
2023-04-23T04:26:03.300Z,40.89
2023-04-23T04:28:09.314Z,41.43
2023-04-23T04:30:11.221Z,41.19
2023-04-23T04:32:14.036Z,40.84
2023-04-23T04:34:15.768Z,40.86
2023-04-23T04:36:18.308Z,41.19
2023-04-23T04:38:26.614Z,41.06
2023-04-23T04:40:28.731Z,40.83
2023-04-23T04:42:30.313Z,41.20
2023-04-23T04:44:37.519Z,40.82
2023-04-23T04:46:41.523Z,41.23
2023-04-23T04:48:43.565Z,41.06
2023-04-23T04:50:48.189Z,41.05
2023-04-23T04:52:49.645Z,41.00
2023-04-23T04:54:51.123Z,41.16
2023-04-23T04:56:52.702Z,41.40
2023-04-23T04:58:54.170Z,41.48
2023-04-23T05:00:58.285Z,41.14
2023-04-23T05:03:00.148Z,41.46
2023-04-23T05:05:01.790Z,41.54
2023-04-23T05:07:03.548Z,41.80
2023-04-23T05:09:05.203Z,41.61
2023-04-23T05:11:09.891Z,41.70
2023-04-23T05:13:14.202Z,41.76
2023-04-23T05:15:18.774Z,42.17
2023-04-23T05:17:20.481Z,41.68
2023-04-23T05:19:22.238Z,41.61
2023-04-23T05:21:27.728Z,41.66
2023-04-23T05:23:29.265Z,41.67
2023-04-23T05:25:33.369Z,41.57
2023-04-23T05:27:35.729Z,41.53
2023-04-23T05:29:37.217Z,41.48
2023-04-23T05:31:41.258Z,41.74
2023-04-23T05:33:50.462Z,41.62
2023-04-23T05:35:52.637Z,41.59
2023-04-23T05:37:54.218Z,41.63
2023-04-23T05:39:56.023Z,41.54
2023-04-23T05:41:58.466Z,41.76
2023-04-23T05:43:59.996Z,41.47
2023-04-23T05:46:02.925Z,41.74
2023-04-23T05:48:04.520Z,41.46
2023-04-23T05:50:07.255Z,41.72
2023-04-23T05:52:10.143Z,41.71
2023-04-23T05:54:13.937Z,41.66
2023-04-23T05:56:18.655Z,41.63
2023-04-23T05:58:22.322Z,41.60
2023-04-23T06:00:23.909Z,41.42
2023-04-23T06:02:25.757Z,41.67
2023-04-23T06:04:27.786Z,41.62
2023-04-23T06:06:32.489Z,41.73
2023-04-23T06:08:34.267Z,42.00
2023-04-23T06:10:35.936Z,41.52
2023-04-23T06:12:39.296Z,41.77
2023-04-23T06:14:40.932Z,42.00
2023-04-23T06:16:51.229Z,42.21
2023-04-23T06:18:53.167Z,42.29
2023-04-23T06:20:59.777Z,42.35
2023-04-23T06:23:04.095Z,42.24
2023-04-23T06:25:06.254Z,42.12
2023-04-23T06:27:08.117Z,42.08
2023-04-23T06:29:13.839Z,42.29
2023-04-23T06:31:26.361Z,42.45
2023-04-23T06:33:28.040Z,42.23
2023-04-23T06:35:30.307Z,42.38
2023-04-23T06:37:31.891Z,42.51
2023-04-23T06:39:33.414Z,42.20
2023-04-23T06:41:43.604Z,42.41
2023-04-23T06:43:58.817Z,42.34
2023-04-23T06:46:17.491Z,42.41
2023-04-23T06:48:19.266Z,42.52
2023-04-23T06:50:21.138Z,42.40
2023-04-23T06:52:28.207Z,42.30
2023-04-23T06:54:29.708Z,42.41
2023-04-23T06:56:31.242Z,42.66
2023-04-23T06:58:32.797Z,42.46
2023-04-23T07:00:37.102Z,42.73
2023-04-23T07:02:39.819Z,42.23
2023-04-23T07:04:42.215Z,42.39
2023-04-23T07:06:45.012Z,42.72
2023-04-23T07:08:46.653Z,42.36
2023-04-23T07:10:48.817Z,42.58
2023-04-23T07:12:50.372Z,42.59
2023-04-23T07:14:54.825Z,42.62
2023-04-23T07:16:56.516Z,42.45
2023-04-23T07:18:58.334Z,42.63
2023-04-23T07:21:02.963Z,42.71
2023-04-23T07:23:05.289Z,42.72
2023-04-23T07:25:10.574Z,42.76
2023-04-23T07:27:12.155Z,42.84
2023-04-23T07:29:14.387Z,42.92
2023-04-23T07:31:16.173Z,42.75
2023-04-23T07:33:18.172Z,42.76
2023-04-23T07:35:19.949Z,43.02
2023-04-23T07:37:22.221Z,42.83
2023-04-23T07:39:23.696Z,43.00
2023-04-23T07:41:25.753Z,42.92
2023-04-23T07:43:27.394Z,43.05
2023-04-23T07:45:29.753Z,42.67
2023-04-23T07:47:31.405Z,43.17
2023-04-23T07:49:35.743Z,42.86
2023-04-23T07:51:43.331Z,42.75
2023-04-23T07:53:47.030Z,42.63
2023-04-23T07:55:51.034Z,43.08
2023-04-23T07:57:52.544Z,43.00
2023-04-23T07:59:54.041Z,43.23
2023-04-23T08:02:01.007Z,42.72
2023-04-23T08:04:03.209Z,42.80
2023-04-23T08:06:05.790Z,42.99
2023-04-23T08:08:08.396Z,42.70
2023-04-23T08:10:12.760Z,42.96
2023-04-23T08:12:14.337Z,43.09
2023-04-23T08:14:15.975Z,43.08
2023-04-23T08:16:17.503Z,43.22
2023-04-23T08:18:21.871Z,43.19
2023-04-23T08:20:23.502Z,43.38
2023-04-23T08:22:25.164Z,43.37
2023-04-23T08:24:27.287Z,43.54
2023-04-23T08:26:28.940Z,43.53
2023-04-23T08:28:33.138Z,43.46
2023-04-23T08:30:36.970Z,43.07
2023-04-23T08:32:44.586Z,43.23
2023-04-23T08:34:48.248Z,42.96
2023-04-23T08:36:50.079Z,42.50
2023-04-23T08:38:51.571Z,42.52
2023-04-23T08:40:58.614Z,42.04
2023-04-23T08:43:10.685Z,41.87
2023-04-23T08:45:13.362Z,41.80
2023-04-23T08:47:19.117Z,41.77
2023-04-23T08:49:20.886Z,41.68
2023-04-23T08:51:28.731Z,41.71
2023-04-23T08:53:32.589Z,41.89
2023-04-23T08:55:35.587Z,41.75
2023-04-23T08:57:39.698Z,41.76
2023-04-23T08:59:41.967Z,41.62
2023-04-23T09:01:44.307Z,41.68
2023-04-23T09:03:47.054Z,41.81
2023-04-23T09:05:54.296Z,41.88
2023-04-23T09:07:57.726Z,41.77
2023-04-23T09:10:02.536Z,41.74
2023-04-23T09:12:05.571Z,42.06
2023-04-23T09:14:08.177Z,41.76
2023-04-23T09:16:11.513Z,41.96
2023-04-23T09:18:17.047Z,41.97
2023-04-23T09:20:18.720Z,41.95
2023-04-23T09:22:39.225Z,41.73
2023-04-23T09:24:44.029Z,41.48
2023-04-23T09:26:50.704Z,41.86
2023-04-23T09:28:52.738Z,41.83
2023-04-23T09:30:54.643Z,41.37
2023-04-23T09:32:56.237Z,41.34
2023-04-23T09:34:57.720Z,40.77
2023-04-23T09:37:00.273Z,40.69
2023-04-23T09:39:01.946Z,40.53
2023-04-23T09:41:26.594Z,40.79
2023-04-23T09:43:30.480Z,40.86
2023-04-23T09:45:32.930Z,40.46
2023-04-23T09:47:38.655Z,40.50
2023-04-23T09:49:50.407Z,40.31
2023-04-23T09:51:52.173Z,40.36
2023-04-23T09:53:57.553Z,40.07
2023-04-23T09:56:02.207Z,39.64
2023-04-23T09:58:09.649Z,39.60
2023-04-23T10:00:17.286Z,39.71
2023-04-23T10:02:19.852Z,39.72
2023-04-23T10:04:24.254Z,39.59
2023-04-23T10:06:42.248Z,39.71
2023-04-23T10:08:49.305Z,39.49
2023-04-23T10:11:03.084Z,39.69
2023-04-23T10:13:11.630Z,39.48
2023-04-23T10:15:14.602Z,39.22
2023-04-23T10:17:17.074Z,38.70
2023-04-23T10:19:24.349Z,38.30
2023-04-23T10:21:33.967Z,38.12
2023-04-23T10:23:41.226Z,37.83
2023-04-23T10:25:43.418Z,37.38
2023-04-23T10:27:53.813Z,37.33
2023-04-23T10:29:59.925Z,37.09
2023-04-23T10:32:07.272Z,36.58
2023-04-23T10:34:10.910Z,36.78
2023-04-23T10:36:12.924Z,36.49
2023-04-23T10:38:15.860Z,36.31
2023-04-23T10:40:31.984Z,35.79
2023-04-23T10:42:33.694Z,35.91
2023-04-23T10:46:54.776Z,36.22
2023-04-23T10:49:19.099Z,35.96
2023-04-23T10:53:48.060Z,35.31
2023-04-23T10:56:06.791Z,34.95
2023-04-23T10:58:10.832Z,35.47
2023-04-23T11:00:14.749Z,34.93
2023-04-23T11:02:19.540Z,35.31
2023-04-23T11:04:24.269Z,35.03
2023-04-23T11:06:47.826Z,34.34
2023-04-23T11:08:53.890Z,34.55
2023-04-23T11:11:00.129Z,34.79
2023-04-23T11:13:24.659Z,34.10
2023-04-23T11:15:26.359Z,35.11
2023-04-23T11:17:34.087Z,34.35
2023-04-23T11:19:39.931Z,34.48
2023-04-23T11:22:10.685Z,34.42
2023-04-23T11:24:13.091Z,34.30
2023-04-23T11:26:21.502Z,34.35
2023-04-23T11:28:23.431Z,34.69
2023-04-23T11:30:30.726Z,34.64
2023-04-23T11:32:32.494Z,34.31
2023-04-23T11:34:34.134Z,34.39
2023-04-23T11:36:36.201Z,34.29
2023-04-23T11:38:39.713Z,34.59
2023-04-23T11:40:48.077Z,34.66
2023-04-23T11:42:51.333Z,34.74
2023-04-23T11:44:52.842Z,35.07
2023-04-23T11:48:56.645Z,35.01
2023-04-23T11:50:58.120Z,35.19
2023-04-23T11:53:08.075Z,35.02
2023-04-23T11:55:09.695Z,35.48
2023-04-23T11:57:11.863Z,35.47
2023-04-23T11:59:13.433Z,35.47
2023-04-23T12:01:14.963Z,35.66
2023-04-23T12:03:16.891Z,35.28
2023-04-23T12:05:29.595Z,35.22
2023-04-23T12:07:34.517Z,35.76
2023-04-23T12:09:36.716Z,35.62
2023-04-23T12:11:39.095Z,35.73
2023-04-23T12:13:47.604Z,35.35
2023-04-23T12:15:54.323Z,35.53
2023-04-23T12:18:11.802Z,35.43
2023-04-23T12:20:21.039Z,35.57
2023-04-23T12:22:28.308Z,35.83
2023-04-23T12:25:02.286Z,36.34
2023-04-23T12:27:03.926Z,35.98
2023-04-23T12:29:07.789Z,36.01
2023-04-23T12:31:09.445Z,36.44
2023-04-23T12:33:11.924Z,36.21
2023-04-23T12:35:14.033Z,36.25
2023-04-23T12:37:17.895Z,36.29
2023-04-23T12:39:19.846Z,36.43
2023-04-23T12:41:21.384Z,36.42
2023-04-23T12:43:24.549Z,36.41
2023-04-23T12:45:26.044Z,36.39
2023-04-23T12:47:29.639Z,36.27
2023-04-23T12:49:32.967Z,36.33
2023-04-23T12:51:34.536Z,36.33
2023-04-23T12:53:36.083Z,36.03
2023-04-23T12:55:39.433Z,36.23
2023-04-23T12:57:41.145Z,36.01
2023-04-23T12:59:42.957Z,36.29
2023-04-23T13:01:44.794Z,36.23
2023-04-23T13:03:46.445Z,36.08
2023-04-23T13:05:48.141Z,36.33
2023-04-23T13:07:49.720Z,36.27
2023-04-23T13:09:51.397Z,35.85
2023-04-23T13:11:52.903Z,36.29
2023-04-23T13:13:54.438Z,36.05
2023-04-23T13:15:58.954Z,36.33
2023-04-23T13:18:00.490Z,35.98
2023-04-23T13:20:02.138Z,36.28
2023-04-23T13:22:04.852Z,36.03
2023-04-23T13:24:09.440Z,35.78
2023-04-23T13:26:10.943Z,36.04
2023-04-23T13:28:12.458Z,35.94
2023-04-23T13:30:14.179Z,35.25
2023-04-23T13:32:16.449Z,35.87
2023-04-23T13:34:17.951Z,35.70
2023-04-23T13:36:19.851Z,36.01
2023-04-23T13:38:30.858Z,35.61
2023-04-23T13:40:32.423Z,35.97
2023-04-23T13:42:34.383Z,36.11
2023-04-23T13:44:36.047Z,36.38
2023-04-23T13:46:37.672Z,35.80
2023-04-23T13:48:39.304Z,36.28
2023-04-23T13:50:41.780Z,36.06
2023-04-23T13:52:45.765Z,36.38
2023-04-23T13:54:50.190Z,36.09
2023-04-23T13:57:00.367Z,36.16
2023-04-23T13:59:18.936Z,35.86
2023-04-23T14:01:30.945Z,35.78
2023-04-23T14:03:36.013Z,35.95
2023-04-23T14:05:40.497Z,35.31
2023-04-23T14:07:42.184Z,35.47
2023-04-23T14:09:45.841Z,34.99
2023-04-23T14:11:53.190Z,35.08
2023-04-23T14:13:57.581Z,35.46
2023-04-23T14:16:03.662Z,35.26
2023-04-23T14:18:05.779Z,34.65
2023-04-23T14:20:07.945Z,34.68
2023-04-23T14:22:09.468Z,34.61
2023-04-23T14:24:27.960Z,34.22
2023-04-23T14:28:49.939Z,34.49
2023-04-23T14:30:57.574Z,34.94
2023-04-23T14:32:59.492Z,34.77
2023-04-23T14:35:01.015Z,34.34
2023-04-23T14:37:03.742Z,34.36
2023-04-23T14:39:05.485Z,34.41
2023-04-23T14:41:07.044Z,34.71
2023-04-23T14:43:15.484Z,34.55
2023-04-23T14:45:18.998Z,34.45
2023-04-23T14:47:20.547Z,34.63
2023-04-23T14:49:22.114Z,34.34
2023-04-23T14:51:23.914Z,34.46
2023-04-23T14:53:25.654Z,34.30
2023-04-23T14:55:34.672Z,34.26
2023-04-23T14:57:36.257Z,34.36
2023-04-23T14:59:37.914Z,33.58
2023-04-23T15:01:39.462Z,34.03
2023-04-23T15:03:41.490Z,34.04
2023-04-23T15:05:43.224Z,34.24
2023-04-23T15:07:44.796Z,34.32
2023-04-23T15:09:46.372Z,33.97
2023-04-23T15:11:48.980Z,34.34
2023-04-23T15:13:56.392Z,33.80
2023-04-23T15:16:03.282Z,33.81
2023-04-23T15:18:05.658Z,34.06
2023-04-23T15:20:07.942Z,33.85
2023-04-23T15:22:09.666Z,34.05
2023-04-23T15:24:11.414Z,34.02
2023-04-23T15:26:13.084Z,33.70
2023-04-23T15:28:14.877Z,33.89
2023-04-23T15:30:16.361Z,33.89
2023-04-23T15:32:22.626Z,34.40
2023-04-23T15:34:24.431Z,33.98
2023-04-23T15:36:25.924Z,34.43
2023-04-23T15:38:27.871Z,34.08
2023-04-23T15:40:33.478Z,34.32
2023-04-23T15:42:34.950Z,34.33
2023-04-23T15:44:38.809Z,34.48
2023-04-23T15:46:41.077Z,34.33
2023-04-23T15:48:42.789Z,34.41
2023-04-23T15:50:45.033Z,34.60
2023-04-23T15:52:47.589Z,34.37
2023-04-23T15:54:50.086Z,34.39
2023-04-23T15:56:51.552Z,34.61
2023-04-23T15:58:53.063Z,34.37
2023-04-23T16:00:54.878Z,34.55
2023-04-23T16:03:01.156Z,34.28
2023-04-23T16:05:02.992Z,34.30
2023-04-23T16:07:04.546Z,34.17
2023-04-23T16:09:11.286Z,34.20
2023-04-23T16:11:14.726Z,34.48
2023-04-23T16:13:16.260Z,34.41
2023-04-23T16:15:17.757Z,34.42
2023-04-23T16:17:19.940Z,34.54
2023-04-23T16:19:21.532Z,34.58
2023-04-23T16:21:24.785Z,34.31
2023-04-23T16:23:26.236Z,34.62
2023-04-23T16:25:27.875Z,34.20
2023-04-23T16:27:32.405Z,34.47
2023-04-23T16:29:36.152Z,34.49
2023-04-23T16:31:37.916Z,34.59
2023-04-23T16:33:40.499Z,34.44
2023-04-23T16:35:41.957Z,34.84
2023-04-23T16:37:43.564Z,34.33
2023-04-23T16:39:45.038Z,34.78
2023-04-23T16:41:47.044Z,34.58
2023-04-23T16:43:48.837Z,34.88
2023-04-23T16:45:52.880Z,34.50
2023-04-23T16:47:54.416Z,34.59
2023-04-23T16:49:56.044Z,34.64
2023-04-23T16:51:57.608Z,34.91
2023-04-23T16:53:59.161Z,34.91
2023-04-23T16:56:04.622Z,34.86
2023-04-23T16:58:06.481Z,34.76
2023-04-23T17:00:08.525Z,35.02
2023-04-23T17:02:10.178Z,35.15
2023-04-23T17:04:12.107Z,34.87
2023-04-23T17:06:30.771Z,34.98
2023-04-23T17:08:49.464Z,35.18
2023-04-23T17:11:08.110Z,35.15
2023-04-23T17:13:09.900Z,35.21
2023-04-23T17:15:16.027Z,34.86
2023-04-23T17:17:17.693Z,35.16
2023-04-23T17:19:19.342Z,35.04
2023-04-23T17:21:21.106Z,35.27
2023-04-23T17:23:22.702Z,35.26
2023-04-23T17:25:24.187Z,35.24
2023-04-23T17:27:31.895Z,35.23
2023-04-23T17:29:33.333Z,35.27
2023-04-23T17:31:36.107Z,35.45
2023-04-23T17:33:39.465Z,35.46
2023-04-23T17:35:41.233Z,35.44
2023-04-23T17:37:42.942Z,35.54
2023-04-23T17:39:44.475Z,35.57
2023-04-23T17:41:48.941Z,35.54
2023-04-23T17:43:50.539Z,35.54
2023-04-23T17:45:52.220Z,35.39
2023-04-23T17:47:54.117Z,35.38
2023-04-23T17:49:55.792Z,35.37
2023-04-23T17:51:57.734Z,35.59
2023-04-23T17:54:00.337Z,35.51
2023-04-23T17:56:03.393Z,35.54
2023-04-23T17:58:09.116Z,35.42
2023-04-23T18:00:12.517Z,35.50
2023-04-23T18:02:16.896Z,35.53
2023-04-23T18:04:21.777Z,35.51
2023-04-23T18:06:23.624Z,35.58
2023-04-23T18:08:26.294Z,35.76
2023-04-23T18:10:29.098Z,35.77
2023-04-23T18:12:33.733Z,35.72
2023-04-23T18:14:37.481Z,35.75
2023-04-23T18:16:39.021Z,35.78
2023-04-23T18:18:40.579Z,35.82
2023-04-23T18:20:43.888Z,35.77
2023-04-23T18:22:45.372Z,35.96
2023-04-23T18:24:47.536Z,35.84
2023-04-23T18:26:52.141Z,35.71
2023-04-23T18:28:53.944Z,35.91
2023-04-23T18:31:02.574Z,35.73
2023-04-23T18:33:35.479Z,35.84
2023-04-23T18:35:37.143Z,36.03
2023-04-23T18:37:53.630Z,36.05
2023-04-23T18:39:58.548Z,36.07
2023-04-23T18:42:11.815Z,36.23
2023-04-23T18:44:14.196Z,36.26
2023-04-23T18:46:16.256Z,36.25
2023-04-23T18:48:21.649Z,36.36
2023-04-23T18:50:41.660Z,36.41
2023-04-23T18:52:43.254Z,36.35
2023-04-23T18:54:46.948Z,36.29
2023-04-23T18:56:49.636Z,36.40
2023-04-23T18:58:54.063Z,36.46
2023-04-23T19:00:56.403Z,36.32
2023-04-23T19:02:58.025Z,36.64
2023-04-23T19:04:59.683Z,36.48
2023-04-23T19:07:01.320Z,36.78
2023-04-23T19:09:05.401Z,37.46
2023-04-23T19:11:08.878Z,37.76
2023-04-23T19:13:13.195Z,38.24
2023-04-23T19:15:15.659Z,38.26
2023-04-23T19:17:18.751Z,38.01
2023-04-23T19:19:20.607Z,38.29
2023-04-23T19:21:22.377Z,38.39
2023-04-23T19:23:23.904Z,38.35
2023-04-23T19:25:25.464Z,38.33
2023-04-23T19:27:26.969Z,38.75
2023-04-23T19:29:28.533Z,39.00
2023-04-23T19:31:32.365Z,39.09
2023-04-23T19:33:34.630Z,39.12
2023-04-23T19:35:41.730Z,39.40
2023-04-23T19:37:46.873Z,39.24
2023-04-23T19:39:48.388Z,39.36
2023-04-23T19:41:50.306Z,39.48
2023-04-23T19:43:51.985Z,39.70
2023-04-23T19:45:58.646Z,39.81
2023-04-23T19:48:00.557Z,39.60
2023-04-23T19:50:02.029Z,39.79
2023-04-23T19:52:04.273Z,39.73
2023-04-23T19:54:06.349Z,40.00
2023-04-23T19:56:13.904Z,39.65
2023-04-23T19:58:18.975Z,40.09
2023-04-23T20:00:23.637Z,40.25
2023-04-23T20:02:25.146Z,40.39
2023-04-23T20:04:26.747Z,40.13
2023-04-23T20:06:29.186Z,40.25
2023-04-23T20:08:41.485Z,40.29
2023-04-23T20:10:43.167Z,40.73
2023-04-23T20:12:44.748Z,40.52
2023-04-23T20:14:46.352Z,40.64
2023-04-23T20:16:47.976Z,40.51
2023-04-23T20:18:56.134Z,40.54
2023-04-23T20:20:57.677Z,40.61
2023-04-23T20:22:59.279Z,40.69
2023-04-23T20:25:01.924Z,40.73
2023-04-23T20:27:03.748Z,41.03
2023-04-23T20:29:05.890Z,40.58
2023-04-23T20:31:10.608Z,40.64
2023-04-23T20:33:18.073Z,41.21
2023-04-23T20:35:19.777Z,41.10
2023-04-23T20:37:21.612Z,40.84
2023-04-23T20:39:24.289Z,41.17
2023-04-23T20:41:26.878Z,41.13
2023-04-23T20:43:42.820Z,40.97
2023-04-23T20:45:46.434Z,41.52
2023-04-23T20:47:48.949Z,41.32
2023-04-23T20:49:50.774Z,41.56
2023-04-23T20:51:53.133Z,41.15
2023-04-23T20:53:57.498Z,41.08
2023-04-23T20:56:00.839Z,41.77
2023-04-23T20:58:02.407Z,41.26
2023-04-23T21:00:11.107Z,41.41
2023-04-23T21:02:14.999Z,41.59
2023-04-23T21:04:17.316Z,41.60
2023-04-23T21:06:20.864Z,41.52
2023-04-23T21:08:22.301Z,41.45
2023-04-23T21:10:24.103Z,41.78
2023-04-23T21:12:25.637Z,41.65
2023-04-23T21:14:35.887Z,41.68
2023-04-23T21:16:38.467Z,41.86
2023-04-23T21:18:41.129Z,41.95
2023-04-23T21:20:42.736Z,41.93
2023-04-23T21:22:44.233Z,41.93
2023-04-23T21:24:45.801Z,41.79
2023-04-23T21:26:47.278Z,41.97
2023-04-23T21:28:52.944Z,42.11
2023-04-23T21:30:57.607Z,42.12
2023-04-23T21:32:59.134Z,42.01
2023-04-23T21:35:03.930Z,42.29
2023-04-23T21:37:05.470Z,42.11
2023-04-23T21:39:08.016Z,42.32
2023-04-23T21:41:09.556Z,42.34
2023-04-23T21:43:11.804Z,42.53
2023-04-23T21:45:13.325Z,42.58
2023-04-23T21:47:15.020Z,42.51
2023-04-23T21:49:17.335Z,42.72
2023-04-23T21:51:23.109Z,42.88
2023-04-23T21:53:25.102Z,42.77
2023-04-23T21:55:30.351Z,43.07
2023-04-23T21:57:34.868Z,42.92
2023-04-23T21:59:37.592Z,42.93
2023-04-23T22:01:39.366Z,43.06
2023-04-23T22:03:43.427Z,43.23
2023-04-23T22:05:45.749Z,43.26
2023-04-23T22:07:49.216Z,43.39
2023-04-23T22:09:55.929Z,43.21
2023-04-23T22:12:01.977Z,43.25
2023-04-23T22:14:06.298Z,43.42
2023-04-23T22:16:20.312Z,43.40
2023-04-23T22:18:32.278Z,43.33
2023-04-23T22:20:33.880Z,43.32
2023-04-23T22:22:36.401Z,43.52
2023-04-23T22:24:37.908Z,43.48
2023-04-23T22:26:42.417Z,43.61
2023-04-23T22:28:44.916Z,43.66
2023-04-23T22:30:46.536Z,43.70
2023-04-23T22:32:48.183Z,43.94
2023-04-23T22:34:51.885Z,43.60
2023-04-23T22:36:53.736Z,43.98
2023-04-23T22:38:56.327Z,43.91
2023-04-23T22:40:57.881Z,43.68
2023-04-23T22:42:59.341Z,43.80
2023-04-23T22:45:03.515Z,43.74
2023-04-23T22:47:05.412Z,43.90
2023-04-23T22:49:11.106Z,43.64
2023-04-23T22:51:16.989Z,43.81
2023-04-23T22:53:24.664Z,44.03
2023-04-23T22:55:26.327Z,44.07
2023-04-23T22:57:30.591Z,43.93
2023-04-23T22:59:32.501Z,44.06
2023-04-23T23:01:34.508Z,44.24
2023-04-23T23:03:36.638Z,44.22
2023-04-23T23:05:38.308Z,43.92
2023-04-23T23:07:39.795Z,44.13
2023-04-23T23:09:41.723Z,44.37
2023-04-23T23:11:43.872Z,44.20
2023-04-23T23:13:45.401Z,44.32
2023-04-23T23:15:46.928Z,44.42
2023-04-23T23:17:49.548Z,44.42
2023-04-23T23:19:51.058Z,44.61
2023-04-23T23:21:52.746Z,44.43
2023-04-23T23:23:54.554Z,44.67
2023-04-23T23:25:58.242Z,44.95
2023-04-23T23:28:04.526Z,44.67
2023-04-23T23:30:09.478Z,44.62
2023-04-23T23:32:11.056Z,44.75
2023-04-23T23:34:12.714Z,44.52
2023-04-23T23:36:19.681Z,44.95
2023-04-23T23:38:24.031Z,44.80
2023-04-23T23:40:31.613Z,45.03
2023-04-23T23:42:36.218Z,44.79
2023-04-23T23:44:37.926Z,45.04
2023-04-23T23:46:43.225Z,44.95
2023-04-23T23:48:44.948Z,44.82
2023-04-23T23:50:46.468Z,44.70
2023-04-23T23:52:47.908Z,44.53
2023-04-23T23:54:49.369Z,44.64
2023-04-23T23:56:52.951Z,44.58
2023-04-23T23:58:57.330Z,44.48
